createdAt,value
2022-11-26T00:01:29.187Z,104.07
2022-11-26T00:03:59.614Z,102.10
2022-11-26T00:06:34.914Z,103.00
2022-11-26T00:09:05.379Z,105.03
2022-11-26T00:11:34.580Z,98.13
2022-11-26T00:14:03.437Z,101.20
2022-11-26T00:16:33.504Z,100.80
2022-11-26T00:19:02.167Z,97.43
2022-11-26T00:21:37.115Z,100.90
2022-11-26T00:24:08.768Z,101.77
2022-11-26T00:26:37.394Z,96.23
2022-11-26T00:29:08.740Z,98.70
2022-11-26T00:31:38.626Z,89.57
2022-11-26T00:34:07.481Z,97.90
2022-11-26T00:36:37.702Z,84.67
2022-11-26T00:39:09.231Z,95.90
2022-11-26T00:41:39.788Z,94.87
2022-11-26T00:44:18.801Z,90.50
2022-11-26T00:46:47.692Z,90.87
2022-11-26T00:49:17.053Z,90.47
2022-11-26T00:51:48.332Z,93.87
2022-11-26T00:54:23.575Z,91.20
2022-11-26T00:56:55.286Z,90.37
2022-11-26T00:59:24.941Z,93.43
2022-11-26T01:01:54.067Z,88.27
2022-11-26T01:04:22.713Z,97.60
2022-11-26T01:06:53.190Z,86.57
2022-11-26T01:09:23.410Z,88.57
2022-11-26T01:11:54.986Z,97.77
2022-11-26T01:14:24.589Z,90.40
2022-11-26T01:16:56.067Z,93.27
2022-11-26T01:19:24.994Z,96.60
2022-11-26T01:21:57.476Z,79.93
2022-11-26T01:24:26.187Z,88.07
2022-11-26T01:26:54.943Z,86.67
2022-11-26T01:29:23.863Z,84.47
2022-11-26T01:31:53.037Z,84.93
2022-11-26T01:34:21.688Z,87.57
2022-11-26T01:36:50.449Z,79.10
2022-11-26T01:39:23.879Z,75.83
2022-11-26T01:41:59.098Z,77.40
2022-11-26T01:44:31.936Z,81.20
2022-11-26T01:47:01.760Z,73.70
2022-11-26T01:49:33.107Z,81.43
2022-11-26T01:52:05.961Z,78.30
2022-11-26T01:54:39.045Z,82.37
2022-11-26T01:57:11.811Z,87.83
2022-11-26T01:59:46.573Z,89.30
2022-11-26T02:02:15.773Z,82.93
2022-11-26T02:04:51.934Z,90.43
2022-11-26T02:07:20.990Z,87.73
2022-11-26T02:09:52.249Z,79.73
2022-11-26T02:12:21.138Z,83.23
2022-11-26T02:14:50.141Z,80.97
2022-11-26T02:17:26.449Z,70.40
2022-11-26T02:20:28.986Z,72.93
2022-11-26T02:23:18.023Z,73.70
2022-11-26T02:26:09.031Z,74.93
2022-11-26T02:29:03.580Z,78.80
2022-11-26T02:31:40.679Z,77.43
2022-11-26T02:34:15.790Z,69.60
2022-11-26T02:36:50.835Z,75.33
2022-11-26T02:39:22.209Z,81.50
2022-11-26T02:41:54.439Z,74.33
2022-11-26T02:44:25.493Z,71.40
2022-11-26T02:47:00.279Z,75.53
2022-11-26T02:49:30.176Z,79.47
2022-11-26T02:52:01.412Z,73.77
2022-11-26T02:54:32.947Z,80.20
2022-11-26T02:57:03.845Z,80.37
2022-11-26T02:59:33.453Z,78.37
2022-11-26T03:02:16.033Z,80.67
2022-11-26T03:04:48.594Z,80.90
2022-11-26T03:07:18.470Z,77.50
2022-11-26T03:09:53.181Z,79.37
2022-11-26T03:12:22.793Z,77.63
2022-11-26T03:14:51.738Z,82.30
2022-11-26T03:17:22.626Z,74.47
2022-11-26T03:19:51.835Z,69.93
2022-11-26T03:22:20.525Z,76.10
2022-11-26T03:24:49.828Z,80.70
2022-11-26T03:27:18.682Z,73.90
2022-11-26T03:29:47.684Z,74.70
2022-11-26T03:32:16.717Z,76.57
2022-11-26T03:34:47.005Z,77.50
2022-11-26T03:37:16.066Z,81.07
2022-11-26T03:39:45.128Z,71.10
2022-11-26T03:42:13.799Z,77.33
2022-11-26T03:44:42.462Z,75.20
2022-11-26T03:47:11.269Z,76.63
2022-11-26T03:49:39.999Z,71.07
2022-11-26T03:52:10.191Z,73.77
2022-11-26T03:54:39.039Z,72.53
2022-11-26T03:57:09.820Z,72.33
2022-11-26T03:59:38.822Z,75.40
2022-11-26T04:02:10.536Z,72.97
2022-11-26T04:04:40.005Z,72.20
2022-11-26T04:07:10.683Z,73.43
2022-11-26T04:09:39.646Z,74.27
2022-11-26T04:12:08.471Z,73.80
2022-11-26T04:14:44.698Z,69.33
2022-11-26T04:17:13.423Z,69.10
2022-11-26T04:19:57.172Z,67.23
2022-11-26T04:22:27.236Z,64.17
2022-11-26T04:25:02.886Z,66.63
2022-11-26T04:27:32.432Z,62.07
2022-11-26T04:30:03.454Z,68.40
2022-11-26T04:32:32.073Z,68.63
2022-11-26T04:35:03.030Z,66.73
2022-11-26T04:37:33.351Z,64.70
2022-11-26T04:40:02.159Z,67.37
2022-11-26T04:42:31.118Z,63.27
2022-11-26T04:45:00.067Z,62.83
2022-11-26T04:47:29.077Z,60.03
2022-11-26T04:49:57.812Z,67.43
2022-11-26T04:52:26.752Z,63.77
2022-11-26T04:54:56.903Z,61.47
2022-11-26T04:57:26.617Z,63.03
2022-11-26T04:59:55.260Z,63.67
2022-11-26T05:02:24.012Z,59.43
2022-11-26T05:04:53.062Z,59.33
2022-11-26T05:07:21.784Z,55.20
2022-11-26T05:09:50.617Z,57.90
2022-11-26T05:12:21.118Z,57.80
2022-11-26T05:14:49.961Z,59.87
2022-11-26T05:17:18.932Z,62.33
2022-11-26T05:19:47.581Z,64.50
2022-11-26T05:22:16.465Z,66.50
2022-11-26T05:24:45.711Z,64.43
2022-11-26T05:27:15.111Z,68.13
2022-11-26T05:29:45.297Z,64.50
2022-11-26T05:32:14.225Z,66.77
2022-11-26T05:34:42.918Z,66.03
2022-11-26T05:37:11.895Z,64.37
2022-11-26T05:39:40.745Z,64.40
2022-11-26T05:42:09.931Z,63.23
2022-11-26T05:44:39.159Z,64.30
2022-11-26T05:47:09.614Z,67.13
2022-11-26T05:49:38.489Z,67.80
2022-11-26T05:52:09.819Z,71.83
2022-11-26T05:54:38.939Z,64.63
2022-11-26T05:57:07.859Z,67.17
2022-11-26T05:59:36.633Z,74.43
2022-11-26T06:02:06.075Z,77.07
2022-11-26T06:04:36.328Z,70.13
2022-11-26T06:07:05.630Z,70.80
2022-11-26T06:09:34.298Z,74.03
2022-11-26T06:12:03.822Z,73.53
2022-11-26T06:14:32.471Z,70.20
2022-11-26T06:17:01.207Z,65.73
2022-11-26T06:19:30.263Z,68.90
2022-11-26T06:22:00.484Z,69.17
2022-11-26T06:24:29.290Z,66.53
2022-11-26T06:26:58.203Z,61.83
2022-11-26T06:29:28.274Z,57.23
2022-11-26T06:31:57.275Z,63.03
2022-11-26T06:34:28.019Z,59.20
2022-11-26T06:36:57.386Z,58.77
2022-11-26T06:39:27.966Z,60.57
2022-11-26T06:41:56.758Z,62.63
2022-11-26T06:44:25.273Z,60.60
2022-11-26T06:46:54.032Z,59.70
2022-11-26T06:49:22.707Z,51.80
2022-11-26T06:51:51.298Z,51.10
2022-11-26T06:54:25.707Z,51.40
2022-11-26T06:56:55.972Z,51.63
2022-11-26T06:59:24.849Z,52.50
2022-11-26T07:01:53.547Z,52.20
2022-11-26T07:04:22.188Z,56.70
2022-11-26T07:06:50.915Z,55.63
2022-11-26T07:09:19.542Z,57.60
2022-11-26T07:11:49.015Z,62.40
2022-11-26T07:14:19.057Z,66.53
2022-11-26T07:16:47.680Z,67.27
2022-11-26T07:19:16.431Z,64.73
2022-11-26T07:21:48.248Z,63.40
2022-11-26T07:24:17.461Z,65.67
2022-11-26T07:26:46.206Z,62.33
2022-11-26T07:29:14.749Z,71.10
2022-11-26T07:31:47.926Z,75.43
2022-11-26T07:34:16.830Z,74.53
2022-11-26T07:36:45.550Z,76.00
2022-11-26T07:39:14.362Z,73.83
2022-11-26T07:41:43.129Z,70.90
2022-11-26T07:44:14.144Z,65.73
2022-11-26T07:46:43.196Z,60.20
2022-11-26T07:49:13.205Z,58.23
2022-11-26T07:51:42.136Z,56.27
2022-11-26T07:54:10.979Z,58.27
2022-11-26T07:56:40.105Z,57.03
2022-11-26T07:59:09.234Z,57.60
2022-11-26T08:01:38.399Z,58.80
2022-11-26T08:04:08.208Z,63.83
2022-11-26T08:06:38.632Z,64.40
2022-11-26T08:09:07.671Z,64.03
2022-11-26T08:11:36.432Z,65.37
2022-11-26T08:14:07.533Z,68.53
2022-11-26T08:16:37.335Z,64.93
2022-11-26T08:19:08.520Z,66.77
2022-11-26T08:21:39.627Z,67.30
2022-11-26T08:24:09.675Z,62.70
2022-11-26T08:26:43.922Z,60.83
2022-11-26T08:29:14.215Z,59.77
2022-11-26T08:31:46.211Z,61.50
2022-11-26T08:34:17.064Z,62.17
2022-11-26T08:36:48.029Z,62.90
2022-11-26T08:39:18.962Z,60.67
2022-11-26T08:41:51.920Z,62.33
2022-11-26T08:44:22.869Z,60.50
2022-11-26T08:46:51.804Z,56.70
2022-11-26T08:49:21.554Z,58.03
2022-11-26T08:51:52.333Z,54.40
2022-11-26T08:54:21.295Z,53.90
2022-11-26T08:56:50.417Z,55.10
2022-11-26T08:59:22.860Z,54.20
2022-11-26T09:01:51.988Z,50.23
2022-11-26T09:04:20.781Z,52.73
2022-11-26T09:06:51.032Z,56.00
2022-11-26T09:09:19.698Z,54.93
2022-11-26T09:11:51.344Z,54.87
2022-11-26T09:14:22.952Z,55.60
2022-11-26T09:16:51.885Z,52.67
2022-11-26T09:19:20.989Z,51.07
2022-11-26T09:21:51.116Z,51.77
2022-11-26T09:24:21.521Z,47.33
2022-11-26T09:26:50.614Z,51.20
2022-11-26T09:29:21.462Z,47.70
2022-11-26T09:32:23.575Z,50.80
2022-11-26T09:34:42.585Z,43.17
2022-11-26T09:37:17.542Z,49.20
2022-11-26T09:39:46.732Z,48.80
2022-11-26T09:42:27.696Z,53.03
2022-11-26T09:45:11.720Z,50.80
2022-11-26T09:47:43.001Z,46.67
2022-11-26T09:50:24.917Z,42.30
2022-11-26T09:53:00.073Z,38.73
2022-11-26T09:55:32.075Z,39.27
2022-11-26T09:58:12.468Z,39.43
2022-11-26T10:00:43.894Z,40.97
2022-11-26T10:03:16.667Z,41.23
2022-11-26T10:05:51.468Z,42.17
2022-11-26T10:08:40.436Z,43.00
2022-11-26T10:11:15.927Z,41.33
2022-11-26T10:13:51.803Z,42.27
2022-11-26T10:16:29.354Z,42.77
2022-11-26T10:19:04.732Z,42.43
2022-11-26T10:24:35.401Z,39.03
2022-11-26T10:27:12.226Z,36.93
2022-11-26T10:29:43.986Z,34.13
2022-11-26T10:32:17.962Z,31.57
2022-11-26T10:34:51.531Z,31.30
2022-11-26T10:37:21.596Z,32.20
2022-11-26T10:40:00.930Z,32.07
2022-11-26T10:42:42.308Z,33.40
2022-11-26T10:45:19.564Z,31.87
2022-11-26T10:47:48.560Z,32.63
2022-11-26T10:50:46.691Z,30.80
2022-11-26T10:53:23.283Z,31.17
2022-11-26T10:55:57.362Z,29.90
2022-11-26T10:58:28.297Z,29.27
2022-11-26T11:01:00.973Z,30.13
2022-11-26T11:06:35.782Z,27.77
2022-11-26T11:09:25.060Z,28.87
2022-11-26T11:12:21.793Z,28.30
2022-11-26T11:14:52.026Z,28.43
2022-11-26T11:17:34.299Z,28.30
2022-11-26T11:20:29.264Z,27.30
2022-11-26T11:23:04.982Z,27.73
2022-11-26T11:25:35.696Z,29.50
2022-11-26T11:28:17.816Z,27.73
2022-11-26T11:30:47.595Z,28.80
2022-11-26T11:33:22.244Z,27.47
2022-11-26T11:36:03.255Z,28.73
2022-11-26T11:38:34.653Z,26.80
2022-11-26T11:41:06.523Z,28.20
2022-11-26T11:43:38.594Z,28.73
2022-11-26T11:46:23.949Z,29.43
2022-11-26T11:49:00.485Z,30.57
2022-11-26T11:51:38.166Z,28.33
2022-11-26T11:54:19.506Z,29.73
2022-11-26T11:56:56.202Z,28.33
2022-11-26T12:00:10.819Z,28.90
2022-11-26T12:03:05.572Z,29.37
2022-11-26T12:05:46.839Z,28.17
2022-11-26T12:08:28.161Z,27.50
2022-11-26T12:11:06.734Z,28.13
2022-11-26T12:13:44.466Z,26.17
2022-11-26T12:16:18.121Z,25.93
2022-11-26T12:18:52.830Z,26.87
2022-11-26T12:21:31.983Z,27.90
2022-11-26T12:24:06.320Z,27.53
2022-11-26T12:26:38.046Z,25.77
2022-11-26T12:29:13.312Z,27.57
2022-11-26T12:31:50.404Z,25.90
2022-11-26T12:34:29.310Z,24.43
2022-11-26T12:37:02.812Z,25.13
2022-11-26T12:39:41.199Z,24.23
2022-11-26T12:42:17.069Z,23.67
2022-11-26T12:44:50.433Z,23.03
2022-11-26T12:47:30.089Z,24.00
2022-11-26T12:50:08.573Z,22.67
2022-11-26T12:52:48.789Z,23.67
2022-11-26T12:55:23.463Z,22.47
2022-11-26T12:57:57.033Z,21.97
2022-11-26T13:00:35.705Z,22.57
2022-11-26T13:03:08.214Z,23.23
2022-11-26T13:05:48.668Z,23.77
2022-11-26T13:08:34.392Z,27.60
2022-11-26T13:11:23.284Z,27.43
2022-11-26T13:13:58.677Z,26.27
2022-11-26T13:16:35.106Z,27.07
2022-11-26T13:19:09.425Z,25.40
2022-11-26T13:22:02.276Z,25.90
2022-11-26T13:24:44.609Z,25.43
2022-11-26T13:27:30.298Z,26.87
2022-11-26T13:30:18.385Z,29.80
2022-11-26T13:33:36.948Z,27.30
2022-11-26T13:36:35.073Z,28.40
2022-11-26T13:39:32.114Z,26.37
2022-11-26T13:42:17.570Z,25.33
2022-11-26T13:45:18.862Z,24.43
2022-11-26T13:47:53.736Z,25.73
2022-11-26T13:50:27.814Z,25.97
2022-11-26T13:53:02.560Z,26.03
2022-11-26T13:55:41.947Z,25.53
2022-11-26T13:58:18.473Z,24.93
2022-11-26T14:00:48.320Z,23.70
2022-11-26T14:03:47.741Z,24.80
2022-11-26T14:06:17.350Z,25.73
2022-11-26T14:08:50.047Z,26.47
2022-11-26T14:11:56.903Z,26.23
2022-11-26T14:14:34.050Z,25.33
2022-11-26T14:17:14.829Z,25.43
2022-11-26T14:20:19.609Z,25.40
2022-11-26T14:22:48.600Z,24.33
2022-11-26T14:25:39.314Z,25.53
2022-11-26T14:28:13.728Z,24.50
2022-11-26T14:30:42.503Z,25.30
2022-11-26T14:33:18.035Z,24.90
2022-11-26T14:35:56.481Z,24.43
2022-11-26T14:38:28.683Z,24.37
2022-11-26T14:41:01.088Z,27.43
2022-11-26T14:43:31.222Z,25.30
2022-11-26T14:46:10.169Z,26.30
2022-11-26T14:48:44.604Z,28.40
2022-11-26T14:51:18.001Z,26.37
2022-11-26T14:53:50.240Z,25.30
2022-11-26T14:56:22.542Z,23.97
2022-11-26T14:58:54.478Z,25.00
2022-11-26T15:01:25.093Z,24.37
2022-11-26T15:04:02.368Z,29.47
2022-11-26T15:06:38.561Z,37.93
2022-11-26T15:09:16.144Z,37.40
2022-11-26T15:11:49.666Z,38.00
2022-11-26T15:14:26.024Z,34.83
2022-11-26T15:17:01.625Z,33.07
2022-11-26T15:19:36.104Z,34.27
2022-11-26T15:22:08.491Z,34.23
2022-11-26T15:24:39.486Z,31.37
2022-11-26T15:27:29.144Z,30.30
2022-11-26T15:29:58.045Z,33.67
2022-11-26T15:32:29.000Z,32.37
2022-11-26T15:35:00.546Z,28.00
2022-11-26T15:37:29.822Z,24.50
2022-11-26T15:40:20.660Z,49.43
2022-11-26T15:42:57.971Z,27.70
2022-11-26T15:45:38.861Z,26.80
2022-11-26T15:48:27.036Z,27.17
2022-11-26T15:51:02.051Z,27.23
2022-11-26T15:53:33.965Z,24.83
2022-11-26T15:56:14.508Z,24.60
2022-11-26T15:58:47.434Z,23.73
2022-11-26T16:01:21.084Z,25.30
2022-11-26T16:03:51.395Z,25.70
2022-11-26T16:06:34.477Z,25.83
2022-11-26T16:09:07.922Z,26.57
2022-11-26T16:11:38.281Z,26.37
2022-11-26T16:14:34.221Z,26.97
2022-11-26T16:17:08.776Z,27.40
2022-11-26T16:19:39.460Z,26.17
2022-11-26T16:22:08.422Z,27.00
2022-11-26T16:24:40.871Z,26.83
2022-11-26T16:27:28.062Z,25.70
2022-11-26T16:29:58.178Z,26.30
2022-11-26T16:32:27.530Z,27.13
2022-11-26T16:34:56.369Z,27.33
2022-11-26T16:37:27.904Z,26.03
2022-11-26T16:40:02.406Z,27.90
2022-11-26T16:42:34.328Z,27.50
2022-11-26T16:45:04.755Z,28.93
2022-11-26T16:47:35.949Z,27.80
2022-11-26T16:50:14.637Z,29.23
2022-11-26T16:52:44.261Z,27.90
2022-11-26T16:55:16.013Z,28.20
2022-11-26T16:57:47.003Z,27.73
2022-11-26T17:00:21.304Z,28.93
2022-11-26T17:02:55.056Z,27.27
2022-11-26T17:05:24.826Z,25.53
2022-11-26T17:08:00.940Z,27.10
2022-11-26T17:10:45.016Z,25.60
2022-11-26T17:13:16.642Z,26.27
2022-11-26T17:15:47.699Z,27.03
2022-11-26T17:18:20.780Z,28.57
2022-11-26T17:20:49.825Z,28.93
2022-11-26T17:23:22.469Z,29.73
2022-11-26T17:25:53.673Z,36.90
2022-11-26T17:28:23.390Z,39.10
2022-11-26T17:31:08.559Z,47.20
2022-11-26T17:33:37.671Z,46.07
2022-11-26T17:36:23.861Z,38.47
2022-11-26T17:38:53.450Z,35.50
2022-11-26T17:41:22.029Z,39.70
2022-11-26T17:43:52.596Z,41.47
2022-11-26T17:46:26.296Z,33.90
2022-11-26T17:48:59.637Z,33.43
2022-11-26T17:51:28.801Z,36.73
2022-11-26T17:53:58.684Z,34.97
2022-11-26T17:56:28.188Z,29.63
2022-11-26T17:59:00.669Z,30.27
2022-11-26T18:01:30.754Z,30.73
2022-11-26T18:04:00.152Z,29.67
2022-11-26T18:06:44.614Z,30.53
2022-11-26T18:09:16.679Z,28.60
2022-11-26T18:11:50.952Z,30.83
2022-11-26T18:14:19.915Z,30.03
2022-11-26T18:16:50.551Z,29.40
2022-11-26T18:19:24.882Z,29.60
2022-11-26T18:21:57.529Z,30.50
2022-11-26T18:24:26.446Z,30.73
2022-11-26T18:26:56.806Z,30.23
2022-11-26T18:29:29.940Z,31.50
2022-11-26T18:32:00.683Z,31.47
2022-11-26T18:34:32.476Z,31.93
2022-11-26T18:37:01.633Z,29.70
2022-11-26T18:39:30.434Z,31.70
2022-11-26T18:42:29.475Z,31.27
2022-11-26T18:44:48.232Z,32.43
2022-11-26T18:47:18.626Z,34.47
2022-11-26T18:49:52.537Z,73.23
2022-11-26T18:52:25.705Z,50.20
2022-11-26T18:54:57.327Z,41.63
2022-11-26T18:57:26.166Z,53.50
2022-11-26T19:00:00.734Z,76.97
2022-11-26T19:02:42.858Z,75.20
2022-11-26T19:05:14.319Z,56.97
2022-11-26T19:07:49.565Z,48.57
2022-11-26T19:10:18.789Z,52.70
2022-11-26T19:12:49.619Z,49.37
2022-11-26T19:15:18.917Z,52.60
2022-11-26T19:17:50.444Z,45.13
2022-11-26T19:20:19.955Z,37.20
2022-11-26T19:22:51.413Z,36.97
2022-11-26T19:25:24.422Z,33.47
2022-11-26T19:28:05.073Z,35.90
2022-11-26T19:30:34.674Z,35.53
2022-11-26T19:33:14.579Z,37.90
2022-11-26T19:35:45.890Z,38.30
2022-11-26T19:38:19.782Z,40.23
2022-11-26T19:40:48.878Z,41.90
2022-11-26T19:43:27.939Z,42.87
2022-11-26T19:46:04.132Z,42.67
2022-11-26T19:48:40.353Z,43.10
2022-11-26T19:51:17.791Z,43.73
2022-11-26T19:53:58.448Z,43.30
2022-11-26T19:56:42.865Z,45.17
2022-11-26T19:59:14.270Z,45.80
2022-11-26T20:01:48.004Z,43.33
2022-11-26T20:04:19.571Z,43.10
2022-11-26T20:06:48.805Z,43.83
2022-11-26T20:09:17.786Z,42.47
2022-11-26T20:11:46.806Z,41.30
2022-11-26T20:14:16.245Z,40.13
2022-11-26T20:16:49.173Z,41.47
2022-11-26T20:19:19.571Z,39.70
2022-11-26T20:21:53.433Z,41.43
2022-11-26T20:24:29.728Z,41.13
2022-11-26T20:27:03.932Z,43.77
2022-11-26T20:29:32.695Z,44.30
2022-11-26T20:32:01.895Z,47.50
2022-11-26T20:34:35.680Z,46.70
2022-11-26T20:37:11.500Z,41.97
2022-11-26T20:39:43.727Z,44.80
2022-11-26T20:42:15.554Z,45.67
2022-11-26T20:44:46.961Z,45.60
2022-11-26T20:47:22.190Z,46.73
2022-11-26T20:49:55.628Z,49.27
2022-11-26T20:52:31.463Z,52.00
2022-11-26T20:55:03.741Z,50.57
2022-11-26T20:57:34.332Z,43.93
2022-11-26T21:00:10.086Z,50.50
2022-11-26T21:02:39.286Z,49.50
2022-11-26T21:05:11.041Z,49.37
2022-11-26T21:07:42.316Z,48.47
2022-11-26T21:10:18.407Z,47.07
2022-11-26T21:12:47.111Z,47.13
2022-11-26T21:15:18.956Z,48.27
2022-11-26T21:17:48.357Z,48.60
2022-11-26T21:20:19.163Z,50.37
2022-11-26T21:22:51.150Z,51.97
2022-11-26T21:25:22.940Z,48.70
2022-11-26T21:27:55.830Z,51.13
2022-11-26T21:30:26.251Z,50.13
2022-11-26T21:32:55.715Z,52.10
2022-11-26T21:35:26.197Z,48.93
2022-11-26T21:37:55.519Z,43.50
2022-11-26T21:40:25.329Z,49.37
2022-11-26T21:42:57.384Z,45.40
2022-11-26T21:45:30.136Z,44.50
2022-11-26T21:47:59.175Z,46.37
2022-11-26T21:50:35.198Z,41.13
2022-11-26T21:53:05.115Z,50.93
2022-11-26T21:55:34.184Z,47.17
2022-11-26T21:58:03.596Z,43.20
2022-11-26T22:00:35.383Z,43.77
2022-11-26T22:03:10.000Z,40.93
2022-11-26T22:05:42.242Z,45.17
2022-11-26T22:08:11.556Z,48.57
2022-11-26T22:10:40.216Z,50.73
2022-11-26T22:13:09.245Z,54.07
2022-11-26T22:15:44.984Z,48.50
2022-11-26T22:18:14.549Z,57.80
2022-11-26T22:20:51.632Z,45.07
2022-11-26T22:23:22.764Z,45.73
2022-11-26T22:25:51.548Z,42.53
2022-11-26T22:28:22.005Z,41.57
2022-11-26T22:30:52.581Z,38.70
2022-11-26T22:33:21.539Z,40.43
2022-11-26T22:35:51.923Z,41.27
2022-11-26T22:38:21.377Z,42.20
2022-11-26T22:40:50.354Z,37.03
2022-11-26T22:43:19.536Z,34.93
2022-11-26T22:45:48.369Z,35.93
2022-11-26T22:48:17.245Z,35.17
2022-11-26T22:50:52.655Z,34.50
2022-11-26T22:53:21.993Z,33.27
2022-11-26T22:55:55.311Z,34.07
2022-11-26T22:58:25.692Z,34.23
2022-11-26T23:00:56.622Z,34.57
2022-11-26T23:03:30.009Z,33.87
2022-11-26T23:06:05.895Z,31.63
2022-11-26T23:08:35.133Z,36.17
2022-11-26T23:11:18.652Z,28.83
2022-11-26T23:13:53.019Z,31.37
2022-11-26T23:16:24.898Z,35.77
2022-11-26T23:19:03.608Z,32.30
2022-11-26T23:21:36.475Z,34.17
2022-11-26T23:24:06.081Z,32.53
2022-11-26T23:26:37.293Z,34.60
2022-11-26T23:29:07.167Z,35.03
2022-11-26T23:31:42.422Z,34.00
2022-11-26T23:34:14.198Z,34.17
2022-11-26T23:36:44.224Z,35.77
2022-11-26T23:39:17.607Z,36.37
2022-11-26T23:41:46.157Z,35.37
2022-11-26T23:44:14.865Z,34.33
2022-11-26T23:46:43.960Z,35.77
2022-11-26T23:49:12.640Z,37.87
2022-11-26T23:51:41.373Z,35.47
2022-11-26T23:54:11.929Z,35.07
2022-11-26T23:56:44.462Z,32.77
2022-11-26T23:59:14.232Z,37.63
